Time;durP1;ratioP1;P1;durP2;ratioP2;P2;SDS_P1;SDS_P2;PMS_P1;PMS_P2;Temp;Humidity;BMP_temperature;BMP_pressure;BME280_temperature;BME280_humidity;BME280_pressure;Samples;Min_cycle;Max_cycle;Signal;HPM_P1;HPM_P2
2021/03/05 00:01:33;;;;;;;13.67;6.00;;;;;;;6.41;100.00;96232.00;4980770;28;20207;-75
2021/03/05 00:03:59;;;;;;;9.07;5.43;;;;;;;6.42;100.00;96225.78;4981162;28;20238;-73
2021/03/05 00:06:25;;;;;;;11.13;5.03;;;;;;;6.48;100.00;96226.97;4983074;28;20242;-73
2021/03/05 00:08:52;;;;;;;9.00;5.23;;;;;;;6.46;100.00;96227.13;4981945;28;20215;-74
2021/03/05 00:11:18;;;;;;;8.73;5.23;;;;;;;6.43;100.00;96226.59;4980326;28;20207;-73
2021/03/05 00:13:44;;;;;;;9.03;4.23;;;;;;;6.41;100.00;96232.00;4981189;28;21146;-75
2021/03/05 00:16:11;;;;;;;10.53;5.03;;;;;;;6.36;100.00;96233.44;4980482;28;20244;-73
2021/03/05 00:18:37;;;;;;;12.90;4.50;;;;;;;6.37;100.00;96229.84;4980519;28;20203;-74
2021/03/05 00:21:03;;;;;;;8.50;4.60;;;;;;;6.39;100.00;96228.72;4980434;28;20211;-75
2021/03/05 00:23:29;;;;;;;12.63;4.77;;;;;;;6.39;100.00;96231.34;4981310;28;20227;-73
2021/03/05 00:25:56;;;;;;;9.37;4.73;;;;;;;6.36;100.00;96231.63;4979909;28;21188;-73
2021/03/05 00:28:22;;;;;;;7.67;4.13;;;;;;;6.42;100.00;96223.16;4980603;28;20631;-74
2021/03/05 00:30:48;;;;;;;6.87;3.50;;;;;;;6.43;100.00;96223.97;4982167;28;20199;-74
2021/03/05 00:33:14;;;;;;;7.83;4.07;;;;;;;6.39;100.00;96222.63;4987521;28;20269;-74
2021/03/05 00:35:40;;;;;;;6.37;3.93;;;;;;;6.32;100.00;96227.66;4979930;28;20211;-74
2021/03/05 00:38:06;;;;;;;8.80;4.40;;;;;;;6.30;100.00;96224.41;4978970;28;20366;-75
2021/03/05 00:40:32;;;;;;;6.90;4.13;;;;;;;6.38;100.00;96224.44;4980602;28;20208;-73
2021/03/05 00:42:59;;;;;;;8.57;4.27;;;;;;;6.42;100.00;96231.03;4979491;28;20772;-74
2021/03/05 00:45:25;;;;;;;6.93;4.30;;;;;;;6.44;100.00;96236.94;4980257;28;20211;-74
2021/03/05 00:47:51;;;;;;;8.43;4.67;;;;;;;6.39;100.00;96223.47;4979714;28;20207;-75
2021/03/05 00:50:20;;;;;;;10.83;4.90;;;;;;;6.32;100.00;96227.66;4980030;28;20203;-75
2021/03/05 00:52:48;;;;;;;11.50;5.77;;;;;;;6.34;100.00;96233.59;4979871;28;20226;-74
2021/03/05 00:55:14;;;;;;;8.63;5.23;;;;;;;6.36;100.00;96236.03;4979421;28;20207;-74
2021/03/05 00:57:40;;;;;;;10.03;4.80;;;;;;;6.34;100.00;96236.19;4979597;28;20222;-75
2021/03/05 01:00:10;;;;;;;9.40;5.23;;;;;;;6.37;100.00;96230.66;4980112;28;20257;-75
2021/03/05 01:02:36;;;;;;;10.37;5.30;;;;;;;6.41;100.00;96231.19;4980415;28;20258;-73
2021/03/05 01:05:03;;;;;;;10.40;5.17;;;;;;;6.42;100.00;96233.63;4978671;28;20199;-73
2021/03/05 01:07:30;;;;;;;9.07;5.00;;;;;;;6.43;100.00;96223.97;4979917;28;20199;-75
2021/03/05 01:09:56;;;;;;;10.43;4.67;;;;;;;6.36;100.00;96231.63;4980963;28;20206;-74
2021/03/05 01:12:22;;;;;;;7.57;4.87;;;;;;;6.35;100.00;96227.38;4978900;28;20313;-74
2021/03/05 01:14:49;;;;;;;8.93;4.43;;;;;;;6.41;100.00;96233.78;4979714;28;20250;-75
2021/03/05 01:17:15;;;;;;;9.17;4.23;;;;;;;6.43;100.00;96227.44;4987003;28;20211;-73
2021/03/05 01:19:42;;;;;;;8.43;4.47;;;;;;;6.39;100.00;96228.72;4978810;28;20207;-74
2021/03/05 01:22:08;;;;;;;8.17;4.57;;;;;;;6.42;100.00;96233.63;4979373;28;20227;-75
2021/03/05 01:24:34;;;;;;;7.40;4.70;;;;;;;6.38;100.00;96228.88;4980580;28;20203;-74
2021/03/05 01:27:00;;;;;;;7.20;4.57;;;;;;;6.44;100.00;96230.88;4978225;28;20211;-74
2021/03/05 01:29:26;;;;;;;10.80;5.20;;;;;;;6.41;100.00;96232.00;4978911;28;20211;-74
2021/03/05 01:31:52;;;;;;;9.50;5.47;;;;;;;6.36;100.00;96223.75;4979708;28;20301;-74
2021/03/05 01:34:19;;;;;;;10.47;5.20;;;;;;;6.40;100.00;96225.13;4979459;28;20227;-73
2021/03/05 01:36:45;;;;;;;11.63;5.00;;;;;;;6.37;100.00;96222.00;4979327;28;20211;-73
2021/03/05 01:39:11;;;;;;;13.00;4.90;;;;;;;6.33;100.00;96218.84;4978454;28;20563;-74
2021/03/05 01:41:37;;;;;;;8.93;5.03;;;;;;;6.36;100.00;96218.53;4979734;28;20211;-73
2021/03/05 01:44:06;;;;;;;9.23;4.93;;;;;;;6.36;100.00;96228.19;4978844;28;20223;-73
2021/03/05 01:46:32;;;;;;;9.60;4.63;;;;;;;6.33;100.00;96223.28;4980682;28;20203;-73
2021/03/05 01:48:58;;;;;;;10.90;5.77;;;;;;;6.36;100.00;96223.75;4978789;28;20203;-74
2021/03/05 01:51:27;;;;;;;11.93;5.97;;;;;;;6.43;100.00;96226.59;4979163;28;20245;-74
2021/03/05 01:53:53;;;;;;;13.03;5.53;;;;;;;6.41;100.00;96226.75;4978223;28;20764;-74
2021/03/05 01:56:31;;;;;;;11.23;5.57;;;;;;;6.43;100.00;96224.81;4982548;28;20215;-74
2021/03/05 01:58:58;;;;;;;11.40;6.37;;;;;;;6.40;100.00;96224.28;4978705;28;20265;-74
2021/03/05 02:01:26;;;;;;;15.67;6.57;;;;;;;6.37;100.00;96225.41;4985790;28;20290;-75
2021/03/05 02:03:52;;;;;;;13.57;7.17;;;;;;;6.43;100.00;96224.81;4978335;28;20229;-74
2021/03/05 02:06:19;;;;;;;15.30;7.23;;;;;;;6.43;100.00;96223.97;4978182;28;20207;-73
2021/03/05 02:08:46;;;;;;;12.03;6.90;;;;;;;6.39;100.00;96220.88;4978889;28;20296;-74
2021/03/05 02:11:12;;;;;;;13.63;6.70;;;;;;;6.39;100.00;96226.09;4978567;28;20214;-74
2021/03/05 02:13:38;;;;;;;11.23;6.47;;;;;;;6.40;100.00;96230.38;4978047;28;20223;-73
2021/03/05 02:16:12;;;;;;;12.50;7.30;;;;;;;6.42;100.00;96230.22;4978013;28;20298;-74
2021/03/05 02:18:45;;;;;;;15.43;7.17;;;;;;;6.47;100.00;96231.38;4978993;28;20662;-74
2021/03/05 02:21:31;;;;;;;13.67;6.60;;;;;;;6.45;100.00;96230.72;4978559;28;20211;-73
2021/03/05 02:24:16;;;;;;;14.73;7.57;;;;;;;6.46;100.00;96232.34;4983082;28;20226;-74
2021/03/05 02:27:01;;;;;;;14.10;7.10;;;;;;;6.49;100.00;96242.53;4978422;28;20298;-73
2021/03/05 02:30:17;;;;;;;12.03;6.70;;;;;;;6.52;100.00;96239.63;4978872;28;20222;-74
2021/03/05 02:32:54;;;;;;;14.40;7.30;;;;;;;6.54;100.00;96237.66;4979330;28;20296;-75
2021/03/05 02:35:22;;;;;;;13.53;7.20;;;;;;;6.54;100.00;96231.59;4977452;28;20211;-74
2021/03/05 02:37:50;;;;;;;12.97;7.30;;;;;;;6.52;100.00;96242.22;4978630;28;20211;-73
2021/03/05 02:40:22;;;;;;;14.23;7.80;;;;;;;6.42;100.00;96241.50;4986614;28;20207;-73
2021/03/05 02:42:52;;;;;;;17.97;8.30;;;;;;;6.38;100.00;96247.19;4977768;28;20281;-73
2021/03/05 02:45:21;;;;;;;17.47;8.90;;;;;;;6.41;100.00;96244.25;4977529;28;20207;-73
2021/03/05 02:47:53;;;;;;;15.87;7.87;;;;;;;6.39;100.00;96248.81;4978671;28;20214;-74
2021/03/05 02:50:21;;;;;;;18.17;9.17;;;;;;;6.31;100.00;96246.97;4989735;28;20590;-73
2021/03/05 02:52:51;;;;;;;24.57;11.23;;;;;;;6.29;100.00;96248.91;4977845;28;20227;-74
2021/03/05 02:55:20;;;;;;;22.43;10.20;;;;;;;6.19;100.00;96248.16;4977768;28;20207;-75
2021/03/05 02:57:49;;;;;;;23.87;12.47;;;;;;;6.11;100.00;96245.47;4985851;28;20253;-73
2021/03/05 03:00:18;;;;;;;28.47;12.80;;;;;;;6.05;100.00;96246.06;4978261;28;20206;-73
2021/03/05 03:02:47;;;;;;;26.60;12.37;;;;;;;6.05;100.00;96253.91;4982190;28;20285;-74
2021/03/05 03:05:15;;;;;;;27.90;12.23;;;;;;;6.00;100.00;96254.53;4981442;28;20203;-74
2021/03/05 03:07:42;;;;;;;28.60;12.60;;;;;;;5.90;100.00;96259.81;4981598;28;20211;-74
2021/03/05 03:10:11;;;;;;;32.60;14.10;;;;;;;5.90;100.00;96259.00;4982070;28;20226;-73
2021/03/05 03:12:38;;;;;;;27.90;12.40;;;;;;;5.89;100.00;96260.78;4982099;28;20241;-75
2021/03/05 03:15:07;;;;;;;31.47;14.00;;;;;;;5.84;100.00;96262.19;4981073;28;20204;-73
2021/03/05 03:17:35;;;;;;;30.67;13.43;;;;;;;5.84;100.00;96259.59;4982499;28;20673;-73
2021/03/05 03:20:03;;;;;;;29.47;12.77;;;;;;;5.83;100.00;96268.41;4988533;28;20199;-73
2021/03/05 03:22:29;;;;;;;31.00;13.53;;;;;;;5.79;100.00;96274.88;4981754;28;20230;-72
2021/03/05 03:24:56;;;;;;;34.97;13.50;;;;;;;5.76;100.00;96272.56;4981430;28;20199;-74
2021/03/05 03:27:22;;;;;;;32.93;14.10;;;;;;;5.76;100.00;96277.81;4980963;28;20207;-74
2021/03/05 03:29:48;;;;;;;33.87;14.60;;;;;;;5.74;100.00;96287.53;4981904;28;20242;-74
2021/03/05 03:32:14;;;;;;;34.83;15.10;;;;;;;5.71;100.00;96283.44;4981122;28;20249;-73
2021/03/05 03:34:42;;;;;;;34.13;13.97;;;;;;;5.66;100.00;96287.47;4981534;28;20214;-74
2021/03/05 03:37:10;;;;;;;31.27;14.17;;;;;;;5.60;100.00;96301.09;4985741;28;20217;-73
2021/03/05 03:39:36;;;;;;;25.20;9.73;;;;;;;5.51;100.00;96296.75;4982938;28;20238;-73
2021/03/05 03:42:03;;;;;;;30.97;12.83;;;;;;;5.49;100.00;96298.69;4981395;28;20203;-73
2021/03/05 03:44:29;;;;;;;27.17;11.70;;;;;;;5.47;100.00;96301.47;4981513;28;20203;-73
2021/03/05 03:46:57;;;;;;;33.33;14.73;;;;;;;5.40;100.00;96312.63;4980558;28;20206;-75
2021/03/05 03:49:29;;;;;;;35.27;13.33;;;;;;;5.30;100.00;96306.63;4980998;28;20210;-73
2021/03/05 03:52:00;;;;;;;38.07;15.77;;;;;;;5.26;100.00;96307.06;4980963;28;20215;-75
2021/03/05 03:54:29;;;;;;;32.70;14.10;;;;;;;5.20;100.00;96311.03;4979747;28;20231;-73
2021/03/05 03:57:00;;;;;;;40.27;16.93;;;;;;;5.15;100.00;96312.44;4979892;28;20199;-74
2021/03/05 03:59:27;;;;;;;29.63;10.70;;;;;;;5.18;100.00;96312.16;4983737;28;20210;-74
2021/03/05 04:01:56;;;;;;;41.00;16.47;;;;;;;5.11;100.00;96314.50;4981883;28;20195;-73
2021/03/05 04:04:23;;;;;;;45.07;18.63;;;;;;;5.10;100.00;96320.69;4981119;28;20199;-73
2021/03/05 04:06:52;;;;;;;31.70;12.93;;;;;;;5.08;100.00;96314.81;4980574;28;20203;-73
2021/03/05 04:09:19;;;;;;;48.03;17.57;;;;;;;5.03;100.00;96319.63;4985005;28;20215;-74
2021/03/05 04:11:47;;;;;;;42.37;17.27;;;;;;;4.97;100.00;96333.22;4980739;28;20671;-73
2021/03/05 04:14:13;;;;;;;26.43;11.97;;;;;;;4.99;100.00;96328.72;4979002;28;20703;-76
2021/03/05 04:16:40;;;;;;;43.83;18.03;;;;;;;4.93;100.00;96324.03;4980579;28;20207;-74
2021/03/05 04:19:06;;;;;;;35.03;13.53;;;;;;;4.94;100.00;96335.31;4980664;28;21219;-74
2021/03/05 04:21:34;;;;;;;35.20;15.90;;;;;;;4.88;100.00;96328.84;4983278;28;20215;-72
2021/03/05 04:24:00;;;;;;;45.53;18.27;;;;;;;4.88;100.00;96334.06;4986684;28;20227;-74
2021/03/05 04:26:26;;;;;;;36.97;15.90;;;;;;;4.83;100.00;96341.50;4979888;28;20625;-75
2021/03/05 04:28:53;;;;;;;34.53;15.27;;;;;;;4.77;100.00;96337.81;4988133;28;20207;-73
2021/03/05 04:31:20;;;;;;;38.80;15.43;;;;;;;4.74;100.00;96335.50;4983964;28;20203;-74
2021/03/05 04:33:46;;;;;;;36.33;16.83;;;;;;;4.72;100.00;96343.44;4980745;28;20239;-75
2021/03/05 04:36:12;;;;;;;35.33;15.03;;;;;;;4.59;100.00;96340.28;4979588;28;20584;-75
2021/03/05 04:38:38;;;;;;;26.50;11.10;;;;;;;4.53;100.00;96342.63;4980498;28;20222;-73
2021/03/05 04:41:04;;;;;;;38.27;16.73;;;;;;;4.54;100.00;96346.91;4979812;28;20203;-72
2021/03/05 04:43:30;;;;;;;35.67;16.37;;;;;;;4.41;100.00;96354.19;4980530;28;20226;-75
2021/03/05 04:45:57;;;;;;;34.73;14.20;;;;;;;4.42;100.00;96350.63;4981200;28;20211;-73
2021/03/05 04:48:23;;;;;;;36.90;15.40;;;;;;;4.39;100.00;96349.09;4980251;28;20563;-74
2021/03/05 04:50:49;;;;;;;32.40;13.93;;;;;;;4.30;100.00;96362.97;4979488;28;20222;-73
2021/03/05 04:53:15;;;;;;;33.47;14.50;;;;;;;4.37;100.00;96373.69;4981299;28;20600;-74
2021/03/05 04:55:41;;;;;;;24.13;11.67;;;;;;;4.32;100.00;96370.66;4980102;28;20199;-74
2021/03/05 04:58:07;;;;;;;16.57;7.60;;;;;;;4.25;100.00;96364.31;4980482;28;20211;-74
2021/03/05 05:00:33;;;;;;;26.57;12.53;;;;;;;4.26;100.00;96366.81;4979888;28;20207;-73
2021/03/05 05:03:00;;;;;;;25.43;12.30;;;;;;;4.22;100.00;96367.19;4979639;28;20227;-74
2021/03/05 05:05:26;;;;;;;25.30;11.80;;;;;;;4.26;100.00;96371.19;4979003;28;20273;-74
2021/03/05 05:07:54;;;;;;;31.10;13.17;;;;;;;4.27;100.00;96370.22;4980326;28;20207;-73
2021/03/05 05:10:20;;;;;;;22.97;11.43;;;;;;;4.30;100.00;96364.72;4979091;28;20238;-74
2021/03/05 05:12:46;;;;;;;24.77;11.27;;;;;;;4.20;100.00;96358.72;4979496;28;20238;-73
2021/03/05 05:15:12;;;;;;;24.50;12.20;;;;;;;4.22;100.00;96361.19;4978895;28;20203;-73
2021/03/05 05:17:38;;;;;;;22.27;11.00;;;;;;;4.19;100.00;96361.44;4980241;28;20207;-73
2021/03/05 05:20:07;;;;;;;18.77;9.73;;;;;;;4.12;100.00;96371.56;4979389;28;20214;-73
2021/03/05 05:22:35;;;;;;;22.37;10.37;;;;;;;4.09;100.00;96369.25;4979522;28;20274;-73
2021/03/05 05:25:01;;;;;;;21.07;10.37;;;;;;;4.13;100.00;96362.81;4978787;28;20301;-74
2021/03/05 05:27:27;;;;;;;21.67;10.83;;;;;;;4.10;100.00;96375.28;4979117;28;20698;-74
2021/03/05 05:29:53;;;;;;;24.20;10.53;;;;;;;4.12;100.00;96375.97;4986764;28;20195;-73
2021/03/05 05:32:19;;;;;;;22.07;9.80;;;;;;;4.07;100.00;96378.97;4979339;28;20227;-72
2021/03/05 05:34:45;;;;;;;23.97;10.77;;;;;;;4.00;100.00;96387.50;4979783;28;20203;-74
2021/03/05 05:37:12;;;;;;;26.80;11.30;;;;;;;3.98;100.00;96381.56;4978241;28;20219;-73
2021/03/05 05:39:38;;;;;;;27.23;11.87;;;;;;;3.95;100.00;96376.63;4979441;28;20211;-74
2021/03/05 05:42:06;;;;;;;27.80;12.57;;;;;;;3.95;100.00;96377.44;4985004;28;20888;-75
2021/03/05 05:44:32;;;;;;;25.97;11.63;;;;;;;3.95;100.00;96385.28;4979408;28;20206;-74
2021/03/05 05:47:01;;;;;;;29.20;12.73;;;;;;;4.02;100.00;96377.75;4977946;28;20215;-73
2021/03/05 05:49:27;;;;;;;27.17;12.30;;;;;;;4.07;100.00;96376.38;4979097;28;20222;-74
2021/03/05 05:51:57;;;;;;;30.30;12.33;;;;;;;4.07;100.00;96381.56;4978911;28;20207;-73
2021/03/05 05:54:25;;;;;;;25.80;11.33;;;;;;;4.15;100.00;96381.75;4978691;28;20222;-72
2021/03/05 05:56:52;;;;;;;30.23;13.20;;;;;;;4.21;100.00;96372.56;4986007;28;20410;-74
2021/03/05 05:59:18;;;;;;;25.47;12.17;;;;;;;4.20;100.00;96374.34;4978817;28;20211;-73
2021/03/05 06:01:45;;;;;;;26.80;12.30;;;;;;;4.25;100.00;96379.97;4978483;28;20215;-74
2021/03/05 06:04:12;;;;;;;27.33;12.57;;;;;;;4.20;100.00;96379.56;4978477;28;20589;-73
2021/03/05 06:06:38;;;;;;;17.00;7.60;;;;;;;4.19;100.00;96385.75;4978076;28;20211;-73
2021/03/05 06:09:05;;;;;;;25.50;11.63;;;;;;;4.12;100.00;96383.81;4990943;28;20226;-73
2021/03/05 06:11:33;;;;;;;18.67;9.20;;;;;;;4.12;100.00;96391.63;4978922;28;20210;-73
2021/03/05 06:14:01;;;;;;;26.50;11.80;;;;;;;4.12;100.00;96400.25;4978354;28;20590;-73
2021/03/05 06:16:27;;;;;;;26.17;11.50;;;;;;;4.06;100.00;96403.41;4977652;28;20230;-73
2021/03/05 06:18:53;;;;;;;26.53;12.53;;;;;;;4.03;100.00;96402.84;4978572;28;20203;-73
2021/03/05 06:21:35;;;;;;;26.67;12.43;;;;;;;4.20;100.00;96405.66;4978524;28;20225;-73
2021/03/05 06:24:02;;;;;;;23.33;10.17;;;;;;;4.08;100.00;96406.69;4978494;28;20624;-73
2021/03/05 06:26:29;;;;;;;25.80;11.67;;;;;;;4.04;100.00;96415.75;4978240;28;20293;-73
2021/03/05 06:29:03;;;;;;;24.57;11.90;;;;;;;3.96;100.00;96420.81;4977802;28;20671;-72
2021/03/05 06:31:30;;;;;;;21.23;10.53;;;;;;;3.93;100.00;96426.28;4978566;28;20198;-73
2021/03/05 06:34:01;;;;;;;21.80;10.13;;;;;;;4.00;100.00;96421.38;4977727;28;20249;-73
2021/03/05 06:36:27;;;;;;;23.70;11.77;;;;;;;4.03;100.00;96434.16;4976996;28;20214;-72
2021/03/05 06:38:54;;;;;;;24.47;11.40;;;;;;;4.05;100.00;96438.28;4979339;28;20256;-73
2021/03/05 06:41:23;;;;;;;23.97;11.40;;;;;;;4.06;100.00;96445.13;4985975;28;20211;-73
2021/03/05 06:43:50;;;;;;;23.20;10.90;;;;;;;4.05;100.00;96438.28;4978222;28;20215;-73
2021/03/05 06:46:34;;;;;;;19.23;8.50;;;;;;;3.98;100.00;96451.97;4977325;28;20215;-72
2021/03/05 06:49:02;;;;;;;15.00;6.73;;;;;;;3.65;100.00;96462.66;4978204;28;20218;-72
2021/03/05 06:51:28;;;;;;;11.20;5.20;;;;;;;3.39;100.00;96463.22;4979163;28;20210;-73
2021/03/05 06:54:06;;;;;;;10.30;4.33;;;;;;;3.27;100.00;96469.44;4977426;28;20231;-73
2021/03/05 06:56:35;;;;;;;13.80;5.20;;;;;;;3.18;100.00;96478.00;4981134;28;20573;-74
2021/03/05 06:59:09;;;;;;;11.80;5.23;;;;;;;3.22;100.00;96484.59;4978658;28;20257;-74
2021/03/05 07:01:50;;;;;;;9.97;5.10;;;;;;;3.12;100.00;96486.34;4978312;28;20232;-73
2021/03/05 07:04:19;;;;;;;11.17;4.57;;;;;;;3.13;100.00;96485.34;4977793;28;20217;-73
2021/03/05 07:06:45;;;;;;;9.07;4.00;;;;;;;3.07;100.00;96498.91;4978039;28;20617;-73
2021/03/05 07:09:22;;;;;;;10.07;5.03;;;;;;;3.14;100.00;96490.47;4980580;28;20222;-73
2021/03/05 07:11:48;;;;;;;9.50;4.70;;;;;;;3.07;100.00;96498.91;4978627;28;20660;-74
2021/03/05 07:14:15;;;;;;;8.83;3.93;;;;;;;3.09;100.00;96499.59;4977656;28;20720;-76
2021/03/05 07:16:46;;;;;;;10.50;4.93;;;;;;;2.98;100.00;96507.47;4977401;28;20972;-73
2021/03/05 07:19:15;;;;;;;11.60;5.20;;;;;;;2.91;100.00;96521.91;4983406;28;20587;-73
2021/03/05 07:21:44;;;;;;;10.77;4.97;;;;;;;2.83;100.00;96533.91;4978259;28;20211;-72
2021/03/05 07:24:12;;;;;;;11.60;4.50;;;;;;;3.00;100.00;96528.16;4977521;28;20949;-72
2021/03/05 07:26:53;;;;;;;10.67;4.07;;;;;;;2.93;100.00;96540.84;4977314;28;20569;-74
2021/03/05 07:29:22;;;;;;;11.73;5.77;;;;;;;2.97;100.00;96544.84;4981770;28;20678;-73
2021/03/05 07:31:57;;;;;;;10.47;4.63;;;;;;;2.88;100.00;96545.59;4978137;28;20253;-73
2021/03/05 07:34:26;;;;;;;11.27;5.40;;;;;;;2.76;100.00;96549.19;4977363;28;20263;-74
2021/03/05 07:36:56;;;;;;;14.57;5.83;;;;;;;2.88;100.00;96553.38;4977445;28;20207;-74
2021/03/05 07:39:25;;;;;;;10.23;4.90;;;;;;;2.91;100.00;96547.13;4979395;28;20969;-74
2021/03/05 07:41:53;;;;;;;14.00;6.00;;;;;;;3.02;100.00;96555.72;4977484;28;20214;-73
2021/03/05 07:44:20;;;;;;;16.23;6.10;;;;;;;2.90;100.00;96555.84;4977929;28;20457;-73
2021/03/05 07:46:47;;;;;;;11.77;5.80;;;;;;;3.07;100.00;96550.97;4977344;28;20207;-72
2021/03/05 07:49:14;;;;;;;11.20;5.23;;;;;;;3.08;100.00;96553.44;4981123;28;20207;-73
2021/03/05 07:51:42;;;;;;;10.97;5.10;;;;;;;2.92;100.00;96559.19;4980960;28;20214;-73
2021/03/05 07:54:08;;;;;;;10.17;4.50;;;;;;;3.10;100.00;96556.72;4981336;28;20226;-72
2021/03/05 07:56:45;;;;;;;9.13;5.00;;;;;;;3.08;100.00;96560.41;4981571;28;20210;-73
2021/03/05 07:59:28;;;;;;;12.40;5.60;;;;;;;3.26;100.00;96553.69;4988909;28;20233;-74
2021/03/05 08:01:56;;;;;;;12.33;5.27;;;;;;;3.11;100.00;96571.41;4980620;28;20206;-73
2021/03/05 08:04:23;;;;;;;12.17;5.03;;;;;;;3.09;100.00;96564.66;4979786;28;20707;-73
2021/03/05 08:07:09;;;;;;;10.63;5.20;;;;;;;3.05;100.00;96576.28;4979881;28;20536;-73
2021/03/05 08:09:37;;;;;;;9.10;3.93;;;;;;;2.97;100.00;96583.88;4981468;28;20757;-73
2021/03/05 08:12:33;;;;;;;9.97;4.53;;;;;;;3.16;100.00;96579.66;4980539;28;20226;-72
2021/03/05 08:15:25;;;;;;;11.77;4.70;;;;;;;3.23;100.00;96586.06;4980337;28;20721;-73
2021/03/05 08:17:52;;;;;;;9.03;4.07;;;;;;;3.19;100.00;96594.22;4988477;28;20207;-74
2021/03/05 08:20:48;;;;;;;10.20;4.90;;;;;;;3.17;100.00;96598.69;4980446;28;20206;-74
2021/03/05 08:23:16;;;;;;;11.23;4.63;;;;;;;3.22;100.00;96617.38;4980308;28;20258;-73
2021/03/05 08:25:53;;;;;;;11.70;4.63;;;;;;;3.24;100.00;96605.09;4980049;28;20209;-74
2021/03/05 08:28:41;;;;;;;8.47;3.70;;;;;;;3.03;100.00;96614.63;4980178;28;21292;-74
2021/03/05 08:31:33;;;;;;;12.07;4.30;;;;;;;2.95;100.00;96622.19;4980832;28;21140;-74
2021/03/05 08:34:29;;;;;;;10.93;4.83;;;;;;;2.83;100.00;96623.19;4980149;28;20277;-74
2021/03/05 08:36:55;;;;;;;8.90;3.77;;;;;;;2.86;100.00;96627.31;4983758;28;20305;-74
2021/03/05 08:39:40;;;;;;;11.23;5.03;;;;;;;2.93;100.00;96629.31;4984252;28;20210;-74
2021/03/05 08:42:29;;;;;;;8.43;3.93;;;;;;;3.06;100.00;96636.03;4979594;28;20598;-73
2021/03/05 08:45:16;;;;;;;8.97;4.10;;;;;;;3.04;100.00;96632.72;4979991;28;20226;-73
2021/03/05 08:47:43;;;;;;;9.70;4.40;;;;;;;3.01;100.00;96642.53;4980329;28;20241;-72
2021/03/05 08:50:11;;;;;;;11.27;4.50;;;;;;;3.09;100.00;96632.34;4980125;28;20351;-73
2021/03/05 08:52:40;;;;;;;10.43;4.27;;;;;;;3.17;100.00;96649.03;4980314;28;20233;-76
2021/03/05 08:55:08;;;;;;;9.87;3.97;;;;;;;3.18;100.00;96642.03;4979339;28;20206;-73
2021/03/05 08:57:39;;;;;;;10.33;4.63;;;;;;;3.14;100.00;96651.03;4980295;28;21099;-73
2021/03/05 09:00:07;;;;;;;13.57;5.13;;;;;;;3.25;100.00;96653.63;4979457;28;20211;-73
2021/03/05 09:02:33;;;;;;;11.13;4.93;;;;;;;3.14;100.00;96661.44;4980186;28;20227;-73
2021/03/05 09:04:59;;;;;;;8.67;3.83;;;;;;;3.01;100.00;96658.16;4979261;28;20241;-74
2021/03/05 09:07:25;;;;;;;10.67;4.60;;;;;;;3.05;100.00;96659.56;4979470;28;20211;-73
2021/03/05 09:09:51;;;;;;;9.70;4.50;;;;;;;3.10;100.00;96662.66;4980068;28;20217;-73
2021/03/05 09:12:21;;;;;;;11.90;4.90;;;;;;;3.15;100.00;96663.09;4979064;28;20722;-75
2021/03/05 09:14:48;;;;;;;5.90;2.73;;;;;;;3.05;100.00;96664.78;4979438;28;20210;-73
2021/03/05 09:17:15;;;;;;;10.47;3.93;;;;;;;3.02;100.00;96665.84;4979935;28;20217;-73
2021/03/05 09:19:42;;;;;;;9.73;4.57;;;;;;;3.02;100.00;96667.63;4980052;28;20222;-73
2021/03/05 09:22:11;;;;;;;12.13;4.80;;;;;;;3.11;100.00;96679.94;4986263;28;20206;-74
2021/03/05 09:24:51;;;;;;;9.53;4.47;;;;;;;3.07;100.00;96688.94;4979154;28;20249;-72
2021/03/05 09:27:23;;;;;;;12.87;5.73;;;;;;;3.14;100.00;96683.13;4979317;28;20609;-73
2021/03/05 09:29:50;;;;;;;11.50;4.53;;;;;;;3.23;100.00;96689.34;4983039;28;20196;-73
2021/03/05 09:32:16;;;;;;;12.50;5.30;;;;;;;3.41;100.00;96687.88;4978919;28;20636;-73
2021/03/05 09:34:56;;;;;;;12.37;5.10;;;;;;;3.49;100.00;96696.75;4979559;28;20203;-74
2021/03/05 09:37:24;;;;;;;11.47;4.70;;;;;;;3.36;100.00;96703.91;4979106;28;20836;-74
2021/03/05 09:39:52;;;;;;;11.13;4.67;;;;;;;3.29;100.00;96699.28;4979145;28;20807;-73
2021/03/05 09:42:19;;;;;;;10.80;4.60;;;;;;;3.21;100.00;96701.69;4979422;28;20665;-73
2021/03/05 09:44:47;;;;;;;11.53;5.17;;;;;;;3.35;100.00;96701.44;4978839;28;20244;-72
2021/03/05 09:47:13;;;;;;;12.07;5.07;;;;;;;3.26;100.00;96705.56;4978434;28;20210;-73
2021/03/05 09:49:40;;;;;;;13.77;6.17;;;;;;;3.31;100.00;96705.19;4979133;28;20217;-74
2021/03/05 09:52:24;;;;;;;14.27;5.70;;;;;;;3.51;100.00;96707.03;4979408;28;20235;-73
2021/03/05 09:54:50;;;;;;;12.00;5.20;;;;;;;3.64;100.00;96716.38;4978496;28;21199;-73
2021/03/05 09:57:23;;;;;;;12.33;5.57;;;;;;;3.82;100.00;96715.69;4978119;28;20207;-74
2021/03/05 09:59:50;;;;;;;12.33;5.43;;;;;;;3.85;100.00;96718.03;4978558;28;20235;-73
2021/03/05 10:02:17;;;;;;;11.10;4.97;;;;;;;3.77;100.00;96720.44;4978866;28;20760;-73
2021/03/05 10:04:44;;;;;;;14.13;5.43;;;;;;;3.92;100.00;96710.53;4978806;28;20238;-73
2021/03/05 10:07:10;;;;;;;12.63;5.57;;;;;;;3.58;100.00;96721.22;4978178;28;20214;-73
2021/03/05 10:09:36;;;;;;;14.20;6.20;;;;;;;3.68;100.00;96723.81;4978698;28;20713;-73
2021/03/05 10:12:03;;;;;;;15.00;5.60;;;;;;;3.73;100.00;96726.88;4978607;28;20226;-73
2021/03/05 10:14:32;;;;;;;13.23;5.87;;;;;;;3.83;100.00;96726.94;4978786;28;20215;-73
2021/03/05 10:17:10;;;;;;;11.73;5.40;;;;;;;3.99;100.00;96728.19;4977734;28;21304;-74
2021/03/05 10:19:40;;;;;;;12.00;5.77;;;;;;;3.85;100.00;96730.25;4978155;28;20214;-74
2021/03/05 10:22:07;;;;;;;12.47;5.50;;;;;;;4.02;100.00;96732.31;4978478;28;20207;-73
2021/03/05 10:24:34;;;;;;;14.13;5.83;;;;;;;4.06;100.00;96728.50;4979584;28;20663;-74
2021/03/05 10:27:10;;;;;;;14.37;5.80;;;;;;;3.97;100.00;96735.31;4977772;28;20214;-73
2021/03/05 10:29:41;;;;;;;17.17;5.83;;;;;;;4.03;100.00;96731.38;4980406;28;20576;-73
2021/03/05 10:32:19;;;;;;;16.20;6.90;;;;;;;4.07;100.00;96730.16;4978262;28;20675;-73
2021/03/05 10:34:46;;;;;;;15.90;6.83;;;;;;;4.42;100.00;96729.72;4977880;28;20265;-72
2021/03/05 10:37:13;;;;;;;17.07;6.40;;;;;;;4.60;100.00;96729.97;4977435;28;20211;-73
2021/03/05 10:39:39;;;;;;;13.73;6.33;;;;;;;4.57;100.00;96722.38;4978789;28;20214;-72
2021/03/05 10:42:09;;;;;;;14.37;6.63;;;;;;;4.85;100.00;96720.75;4977891;28;20264;-73
2021/03/05 10:44:35;;;;;;;15.87;6.00;;;;;;;4.99;100.00;96724.78;4982850;28;20233;-73
2021/03/05 10:47:04;;;;;;;14.43;6.10;;;;;;;5.35;100.00;96729.47;4977402;28;20209;-74
2021/03/05 10:49:31;;;;;;;14.17;5.80;;;;;;;5.14;100.00;96729.53;4977830;28;20387;-74
2021/03/05 10:51:57;;;;;;;12.17;5.83;;;;;;;5.07;100.00;96738.84;4978221;28;20225;-73
2021/03/05 10:54:23;;;;;;;15.77;6.07;;;;;;;5.33;100.00;96726.97;4978663;28;20273;-72
2021/03/05 10:56:50;;;;;;;12.23;6.00;;;;;;;5.49;100.00;96728.09;4977589;28;20203;-74
2021/03/05 10:59:17;;;;;;;14.23;5.87;;;;;;;5.53;100.00;96726.88;4982099;28;20275;-73
2021/03/05 11:01:44;;;;;;;14.83;6.27;;;;;;;5.71;98.73;96729.66;4979165;28;20340;-74
2021/03/05 11:04:10;;;;;;;14.07;6.13;;;;;;;5.12;99.63;96739.28;4977995;28;20262;-73
2021/03/05 11:06:37;;;;;;;15.60;6.57;;;;;;;5.52;100.00;96735.69;4978937;28;20952;-73
2021/03/05 11:09:05;;;;;;;15.83;6.53;;;;;;;5.67;100.00;96730.91;4977828;28;20219;-74
2021/03/05 11:11:31;;;;;;;13.57;6.13;;;;;;;5.77;97.09;96731.78;4978059;28;20212;-73
2021/03/05 11:13:58;;;;;;;15.73;6.20;;;;;;;5.97;95.08;96736.88;4977743;28;20215;-73
2021/03/05 11:16:24;;;;;;;13.60;5.93;;;;;;;6.01;97.24;96747.88;4977488;28;20207;-73
2021/03/05 11:18:50;;;;;;;13.90;6.20;;;;;;;5.96;97.19;96739.63;4977900;28;20214;-73
2021/03/05 11:21:16;;;;;;;14.03;5.83;;;;;;;5.94;89.10;96744.19;4978193;28;20203;-73
2021/03/05 11:23:43;;;;;;;14.20;5.80;;;;;;;5.91;90.41;96741.84;4980833;28;20325;-73
2021/03/05 11:26:09;;;;;;;13.67;5.60;;;;;;;5.64;93.14;96741.66;4981044;28;20203;-73
2021/03/05 11:28:35;;;;;;;14.03;5.90;;;;;;;6.07;98.48;96751.63;4989478;28;20257;-74
2021/03/05 11:31:01;;;;;;;14.23;5.70;;;;;;;5.94;91.94;96738.94;4981388;28;20211;-73
2021/03/05 11:33:29;;;;;;;13.20;5.57;;;;;;;5.60;93.35;96750.69;4981717;28;20232;-74